createdAt,value
2023-09-10T00:00:51.724Z,97913.44
2023-09-10T00:03:18.484Z,97910.25
2023-09-10T00:05:45.296Z,97904.16
2023-09-10T00:08:12.058Z,97906.41
2023-09-10T00:10:39.731Z,97906.31
2023-09-10T00:13:06.481Z,97903.88
2023-09-10T00:15:33.200Z,97902.38
2023-09-10T00:18:00.185Z,97897.25
2023-09-10T00:20:28.240Z,97897.97
2023-09-10T00:22:58.319Z,97903.06
2023-09-10T00:25:25.646Z,97906.09
2023-09-10T00:27:52.461Z,97903.69
2023-09-10T00:30:19.179Z,97902.34
2023-09-10T00:32:45.811Z,97901.34
2023-09-10T00:35:12.540Z,97901.75
2023-09-10T00:37:39.260Z,97905.22
2023-09-10T00:40:07.052Z,97903.56
2023-09-10T00:42:33.694Z,97901.25
2023-09-10T00:45:00.341Z,97903.84
2023-09-10T00:47:28.226Z,97907.31
2023-09-10T00:49:55.635Z,97907.31
2023-09-10T00:52:23.468Z,97911.66
2023-09-10T00:54:51.022Z,97900.91
2023-09-10T00:57:17.994Z,97916.72
2023-09-10T00:59:45.160Z,97903.38
2023-09-10T01:02:15.342Z,97907.81
2023-09-10T01:04:42.704Z,97909.72
2023-09-10T01:07:10.478Z,97918.00
2023-09-10T01:09:37.124Z,97918.19
2023-09-10T01:12:15.018Z,97922.94
2023-09-10T01:15:01.188Z,97924.63
2023-09-10T01:17:46.083Z,97919.38
2023-09-10T01:20:43.725Z,97919.41
2023-09-10T01:23:25.509Z,97925.06
2023-09-10T01:25:52.847Z,97923.72
2023-09-10T01:28:19.492Z,97914.06
2023-09-10T01:30:46.140Z,97916.13
2023-09-10T01:33:35.167Z,97910.31
2023-09-10T01:36:26.490Z,97906.28
2023-09-10T01:39:00.986Z,97904.88
2023-09-10T01:41:28.418Z,97912.34
2023-09-10T01:43:55.666Z,97903.66
2023-09-10T01:46:26.180Z,97906.59
2023-09-10T01:48:53.014Z,97905.06
2023-09-10T01:51:20.201Z,97908.22
2023-09-10T01:53:47.711Z,97906.38
2023-09-10T01:56:14.450Z,97917.03
2023-09-10T01:58:41.352Z,97907.41
2023-09-10T02:01:08.256Z,97915.56
2023-09-10T02:03:34.918Z,97907.88
2023-09-10T02:06:04.513Z,97909.22
2023-09-10T02:08:31.591Z,97901.69
2023-09-10T02:10:58.331Z,97910.69
2023-09-10T02:13:25.005Z,97906.47
2023-09-10T02:15:51.848Z,97908.59
2023-09-10T02:18:18.548Z,97905.19
2023-09-10T02:20:45.128Z,97910.91
2023-09-10T02:23:11.739Z,97910.03
2023-09-10T02:25:40.123Z,97905.75
2023-09-10T02:28:07.482Z,97909.91
2023-09-10T02:30:35.384Z,97906.44
2023-09-10T02:33:02.079Z,97903.38
2023-09-10T02:35:28.853Z,97910.22
2023-09-10T02:37:55.747Z,97907.50
2023-09-10T02:40:22.579Z,97910.38
2023-09-10T02:42:49.210Z,97906.16
2023-09-10T02:45:17.045Z,97904.88
2023-09-10T02:47:43.981Z,97906.50
2023-09-10T02:50:10.744Z,97904.47
2023-09-10T02:52:37.808Z,97908.19
2023-09-10T02:55:04.954Z,97909.72
2023-09-10T02:57:31.665Z,97912.69
2023-09-10T02:59:58.438Z,97906.88
2023-09-10T03:02:25.184Z,97918.53
2023-09-10T03:04:51.938Z,97906.97
2023-09-10T03:07:18.767Z,97909.91
2023-09-10T03:09:45.420Z,97910.28
2023-09-10T03:12:23.898Z,97906.31
2023-09-10T03:14:51.842Z,97903.59
2023-09-10T03:17:19.487Z,97905.06
2023-09-10T03:19:46.526Z,97905.56
2023-09-10T03:22:15.237Z,97905.13
2023-09-10T03:24:41.899Z,97904.72
2023-09-10T03:27:08.583Z,97903.50
2023-09-10T03:29:35.946Z,97910.44
2023-09-10T03:32:05.680Z,97900.16
2023-09-10T03:34:32.591Z,97900.16
2023-09-10T03:36:59.520Z,97897.63
2023-09-10T03:39:27.018Z,97896.47
2023-09-10T03:41:54.039Z,97900.19
2023-09-10T03:44:21.378Z,97891.44
2023-09-10T03:46:48.479Z,97899.81
2023-09-10T03:49:15.593Z,97904.06
2023-09-10T03:51:42.313Z,97895.53
2023-09-10T03:54:12.787Z,97900.28
2023-09-10T03:56:40.831Z,97889.44
2023-09-10T03:59:08.489Z,97887.72
2023-09-10T04:01:36.622Z,97889.31
2023-09-10T04:04:04.590Z,97894.84
2023-09-10T04:06:31.221Z,97890.81
2023-09-10T04:08:57.821Z,97892.19
2023-09-10T04:11:24.444Z,97884.72
2023-09-10T04:13:51.133Z,97890.81
2023-09-10T04:16:17.940Z,97888.63
2023-09-10T04:18:47.255Z,97888.47
2023-09-10T04:21:14.502Z,97890.97
2023-09-10T04:23:41.171Z,97892.50
2023-09-10T04:26:07.974Z,97901.66
2023-09-10T04:28:34.673Z,97904.22
2023-09-10T04:31:02.218Z,97901.81
2023-09-10T04:33:29.537Z,97903.50
2023-09-10T04:35:58.384Z,97913.50
2023-09-10T04:38:25.726Z,97910.84
2023-09-10T04:40:52.768Z,97908.28
2023-09-10T04:43:19.552Z,97909.16
2023-09-10T04:45:47.402Z,97904.91
2023-09-10T04:48:14.930Z,97908.78
2023-09-10T04:50:42.089Z,97913.50
2023-09-10T04:53:08.764Z,97917.91
2023-09-10T04:55:35.588Z,97921.84
2023-09-10T04:58:02.450Z,97918.22
2023-09-10T05:00:29.207Z,97919.84
2023-09-10T05:02:56.175Z,97916.28
2023-09-10T05:05:23.149Z,97920.53
2023-09-10T05:07:51.126Z,97920.25
2023-09-10T05:10:18.110Z,97927.22
2023-09-10T05:12:45.161Z,97922.03
2023-09-10T05:15:13.303Z,97927.22
2023-09-10T05:17:40.397Z,97925.59
2023-09-10T05:20:08.806Z,97929.06
2023-09-10T05:22:35.914Z,97940.69
2023-09-10T05:25:03.382Z,97942.19
2023-09-10T05:27:30.095Z,97939.63
2023-09-10T05:29:56.814Z,97946.66
2023-09-10T05:32:23.475Z,97938.34
2023-09-10T05:34:50.494Z,97943.28
2023-09-10T05:37:17.431Z,97941.00
2023-09-10T05:39:44.056Z,97938.31
2023-09-10T05:42:10.714Z,97951.75
2023-09-10T05:44:37.552Z,97952.50
2023-09-10T05:47:04.379Z,97951.75
2023-09-10T05:49:31.120Z,97948.56
2023-09-10T05:51:57.700Z,97958.81
2023-09-10T05:54:25.398Z,97948.56
2023-09-10T05:56:52.012Z,97949.69
2023-09-10T05:59:18.644Z,97952.09
2023-09-10T06:01:45.364Z,97952.63
2023-09-10T06:04:12.127Z,97947.25
2023-09-10T06:06:38.869Z,97942.31
2023-09-10T06:09:05.963Z,97947.69
2023-09-10T06:11:32.791Z,97950.53
2023-09-10T06:13:59.418Z,97947.38
2023-09-10T06:16:26.342Z,97938.28
2023-09-10T06:18:53.141Z,97951.53
2023-09-10T06:21:20.130Z,97942.38
2023-09-10T06:23:46.807Z,97940.78
2023-09-10T06:26:14.578Z,97946.25
2023-09-10T06:28:42.990Z,97938.69
2023-09-10T06:31:10.244Z,97940.16
2023-09-10T06:33:37.151Z,97941.00
2023-09-10T06:36:04.109Z,97939.22
2023-09-10T06:38:30.876Z,97938.09
2023-09-10T06:40:57.903Z,97946.56
2023-09-10T06:43:24.635Z,97940.66
2023-09-10T06:46:08.329Z,97943.09
2023-09-10T06:48:34.937Z,97947.59
2023-09-10T06:51:04.455Z,97955.63
2023-09-10T06:53:31.387Z,97947.69
2023-09-10T06:55:58.670Z,97949.44
2023-09-10T06:58:25.277Z,97935.94
2023-09-10T07:00:51.927Z,97945.50
2023-09-10T07:03:18.561Z,97945.75
2023-09-10T07:05:45.558Z,97945.22
2023-09-10T07:08:12.591Z,97947.53
2023-09-10T07:10:39.536Z,97941.81
2023-09-10T07:13:07.797Z,97949.69
2023-09-10T07:15:35.259Z,97947.94
2023-09-10T07:18:02.185Z,97943.75
2023-09-10T07:20:28.866Z,97946.53
2023-09-10T07:22:55.515Z,97936.19
2023-09-10T07:25:22.305Z,97944.72
2023-09-10T07:27:48.901Z,97944.50
2023-09-10T07:30:15.522Z,97940.63
2023-09-10T07:32:43.104Z,97941.66
2023-09-10T07:35:09.997Z,97941.84
2023-09-10T07:37:36.822Z,97944.22
2023-09-10T07:40:03.582Z,97948.44
2023-09-10T07:42:30.192Z,97941.00
2023-09-10T07:44:56.812Z,97940.38
2023-09-10T07:47:23.420Z,97941.25
2023-09-10T07:49:53.244Z,97940.53
2023-09-10T07:52:19.948Z,97938.13
2023-09-10T07:54:47.165Z,97945.66
2023-09-10T07:57:16.010Z,97936.25
2023-09-10T07:59:42.923Z,97944.25
2023-09-10T08:02:09.615Z,97938.81
2023-09-10T08:04:36.286Z,97934.94
2023-09-10T08:07:06.030Z,97930.00
2023-09-10T08:09:32.971Z,97935.63
2023-09-10T08:11:59.956Z,97929.25
2023-09-10T08:14:26.844Z,97934.59
2023-09-10T08:16:53.678Z,97930.44
2023-09-10T08:19:20.495Z,97925.41
2023-09-10T08:21:47.344Z,97932.19
2023-09-10T08:24:13.982Z,97928.41
2023-09-10T08:26:40.765Z,97935.09
2023-09-10T08:29:07.479Z,97930.13
2023-09-10T08:31:34.286Z,97928.91
2023-09-10T08:34:01.087Z,97924.84
2023-09-10T08:36:27.908Z,97928.16
2023-09-10T08:38:55.717Z,97931.94
2023-09-10T08:41:22.394Z,97931.09
2023-09-10T08:43:56.941Z,97929.00
2023-09-10T08:46:31.114Z,97930.34
2023-09-10T08:48:59.040Z,97925.41
2023-09-10T08:51:26.444Z,97931.38
2023-09-10T08:53:57.232Z,97928.38
2023-09-10T08:56:25.075Z,97927.00
2023-09-10T08:58:52.565Z,97921.72
2023-09-10T09:01:20.355Z,97920.63
2023-09-10T09:03:49.107Z,97914.63
2023-09-10T09:06:16.833Z,97912.31
2023-09-10T09:08:49.568Z,97914.31
2023-09-10T09:11:17.691Z,97915.75
2023-09-10T09:13:48.218Z,97906.41
2023-09-10T09:16:16.508Z,97909.81
2023-09-10T09:18:44.736Z,97903.13
2023-09-10T09:21:22.725Z,97896.78
2023-09-10T09:23:59.333Z,97901.84
2023-09-10T09:26:28.332Z,97896.09
2023-09-10T09:28:58.862Z,97901.19
2023-09-10T09:31:26.607Z,97904.16
2023-09-10T09:33:54.078Z,97906.66
2023-09-10T09:36:28.003Z,97901.25
2023-09-10T09:38:55.774Z,97895.53
2023-09-10T09:41:22.513Z,97896.94
2023-09-10T09:43:49.289Z,97902.13
2023-09-10T09:46:15.939Z,97898.72
2023-09-10T09:48:43.066Z,97897.72
2023-09-10T09:51:11.064Z,97892.75
2023-09-10T09:53:37.880Z,97890.50
2023-09-10T09:56:06.263Z,97889.41
2023-09-10T09:58:34.232Z,97896.06
2023-09-10T10:01:01.790Z,97895.00
2023-09-10T10:03:32.529Z,97896.06
2023-09-10T10:05:59.355Z,97891.31
2023-09-10T10:08:27.869Z,97892.84
2023-09-10T10:10:55.140Z,97887.72
2023-09-10T10:13:24.639Z,97881.91
2023-09-10T10:15:54.173Z,97882.94
2023-09-10T10:18:22.837Z,97882.13
2023-09-10T10:20:51.024Z,97876.31
2023-09-10T10:23:24.614Z,97867.91
2023-09-10T10:25:54.367Z,97872.13
2023-09-10T10:28:21.826Z,97867.91
2023-09-10T10:30:59.872Z,97870.13
2023-09-10T10:33:29.188Z,97863.69
2023-09-10T10:36:03.617Z,97868.63
2023-09-10T10:38:35.012Z,97866.13
2023-09-10T10:41:13.793Z,97858.31
2023-09-10T10:44:14.557Z,97859.88
2023-09-10T10:46:44.472Z,97859.31
2023-09-10T10:49:11.511Z,97858.84
2023-09-10T10:51:55.967Z,97854.19
2023-09-10T10:54:24.032Z,97850.97
2023-09-10T10:56:51.241Z,97854.19
2023-09-10T10:59:18.818Z,97860.44
2023-09-10T11:02:10.912Z,97848.84
2023-09-10T11:04:37.599Z,97844.13
2023-09-10T11:07:16.973Z,97851.66
2023-09-10T11:09:43.961Z,97846.97
2023-09-10T11:12:10.722Z,97848.91
2023-09-10T11:15:02.042Z,97842.50
2023-09-10T11:17:30.943Z,97843.03
2023-09-10T11:19:57.681Z,97844.09
2023-09-10T11:22:24.498Z,97844.63
2023-09-10T11:25:01.878Z,97840.50
2023-09-10T11:27:28.623Z,97841.25
2023-09-10T11:30:15.290Z,97842.25
2023-09-10T11:32:46.240Z,97840.63
2023-09-10T11:35:19.838Z,97844.97
2023-09-10T11:37:49.339Z,97835.78
2023-09-10T11:40:16.435Z,97838.47
2023-09-10T11:42:44.325Z,97829.28
2023-09-10T11:45:11.768Z,97835.03
2023-09-10T11:47:46.076Z,97833.84
2023-09-10T11:50:14.683Z,97832.94
2023-09-10T11:52:41.515Z,97833.50
2023-09-10T11:55:11.763Z,97823.66
2023-09-10T11:57:39.253Z,97822.50
2023-09-10T12:00:07.837Z,97822.59
2023-09-10T12:02:41.946Z,97820.00
2023-09-10T12:05:09.812Z,97818.03
2023-09-10T12:07:37.053Z,97809.56
2023-09-10T12:10:04.641Z,97807.63
2023-09-10T12:12:34.943Z,97800.41
2023-09-10T12:15:02.208Z,97805.28
2023-09-10T12:17:29.116Z,97808.84
2023-09-10T12:19:56.331Z,97804.19
2023-09-10T12:22:23.073Z,97799.63
2023-09-10T12:24:49.761Z,97802.81
2023-09-10T12:27:16.748Z,97806.75
2023-09-10T12:29:43.823Z,97795.13
2023-09-10T12:32:10.656Z,97789.81
2023-09-10T12:34:39.095Z,97795.06
2023-09-10T12:37:05.925Z,97793.38
2023-09-10T12:39:34.617Z,97790.91
2023-09-10T12:42:04.760Z,97796.16
2023-09-10T12:44:32.579Z,97799.75
2023-09-10T12:47:01.889Z,97788.72
2023-09-10T12:49:28.808Z,97782.25
2023-09-10T12:51:55.513Z,97787.69
2023-09-10T12:54:22.294Z,97777.25
2023-09-10T12:56:50.240Z,97780.88
2023-09-10T12:59:16.944Z,97780.72
2023-09-10T13:01:43.953Z,97780.88
2023-09-10T13:04:10.826Z,97775.22
2023-09-10T13:06:37.796Z,97773.84
2023-09-10T13:09:05.429Z,97776.38
2023-09-10T13:11:34.953Z,97771.44
2023-09-10T13:14:04.772Z,97783.72
2023-09-10T13:16:31.509Z,97781.06
2023-09-10T13:18:58.282Z,97778.19
2023-09-10T13:21:25.037Z,97773.63
2023-09-10T13:23:51.689Z,97765.97
2023-09-10T13:26:18.799Z,97776.28
2023-09-10T13:28:45.623Z,97769.84
2023-09-10T13:31:12.325Z,97767.56
2023-09-10T13:33:39.250Z,97767.31
2023-09-10T13:36:06.347Z,97761.44
2023-09-10T13:38:32.978Z,97760.41
2023-09-10T13:40:59.770Z,97763.69
2023-09-10T13:43:26.459Z,97759.09
2023-09-10T13:45:53.139Z,97762.59
2023-09-10T13:48:19.793Z,97756.09
2023-09-10T13:50:46.593Z,97754.94
2023-09-10T13:53:13.314Z,97755.50
2023-09-10T13:55:40.160Z,97760.25
2023-09-10T13:58:06.825Z,97755.00
2023-09-10T14:00:34.637Z,97748.75
2023-09-10T14:03:01.502Z,97751.88
2023-09-10T14:05:31.411Z,97750.19
2023-09-10T14:07:58.617Z,97740.38
2023-09-10T14:10:25.828Z,97735.69
2023-09-10T14:12:53.524Z,97734.94
2023-09-10T14:15:20.232Z,97732.16
2023-09-10T14:17:47.019Z,97736.13
2023-09-10T14:20:13.888Z,97736.66
2023-09-10T14:22:41.611Z,97731.88
2023-09-10T14:25:16.200Z,97731.44
2023-09-10T14:27:42.949Z,97725.91
2023-09-10T14:30:10.009Z,97727.69
2023-09-10T14:32:37.538Z,97719.47
2023-09-10T14:35:05.590Z,97720.19
2023-09-10T14:37:32.471Z,97722.47
2023-09-10T14:39:59.206Z,97724.09
2023-09-10T14:42:25.963Z,97711.63
2023-09-10T14:44:52.536Z,97710.50
2023-09-10T14:47:19.230Z,97719.31
2023-09-10T14:49:45.885Z,97711.44
2023-09-10T14:52:12.592Z,97709.72
2023-09-10T14:54:39.251Z,97706.44
2023-09-10T14:57:05.858Z,97706.53
2023-09-10T14:59:32.575Z,97713.41
2023-09-10T15:01:59.486Z,97701.81
2023-09-10T15:04:26.389Z,97700.63
2023-09-10T15:06:54.996Z,97704.13
2023-09-10T15:09:22.990Z,97695.53
2023-09-10T15:11:50.126Z,97694.47
2023-09-10T15:14:16.830Z,97699.25
2023-09-10T15:16:43.462Z,97695.19
2023-09-10T15:19:10.054Z,97706.34
2023-09-10T15:21:36.750Z,97694.63
2023-09-10T15:24:03.598Z,97700.25
2023-09-10T15:26:30.196Z,97699.88
2023-09-10T15:28:56.847Z,97701.81
2023-09-10T15:31:24.496Z,97700.19
2023-09-10T15:33:51.175Z,97697.75
2023-09-10T15:36:17.788Z,97698.00
2023-09-10T15:38:45.336Z,97695.03
2023-09-10T15:41:12.342Z,97693.63
2023-09-10T15:43:40.476Z,97694.94
2023-09-10T15:46:07.383Z,97687.94
2023-09-10T15:48:38.818Z,97693.63
2023-09-10T15:51:06.704Z,97688.06
2023-09-10T15:53:33.465Z,97682.66
2023-09-10T15:56:00.286Z,97685.56
2023-09-10T15:58:27.117Z,97680.31
2023-09-10T16:00:55.565Z,97673.06
2023-09-10T16:03:22.682Z,97675.66
2023-09-10T16:05:49.766Z,97684.88
2023-09-10T16:08:16.642Z,97681.63
2023-09-10T16:10:43.511Z,97681.06
2023-09-10T16:13:10.217Z,97688.97
2023-09-10T16:15:37.571Z,97691.91
2023-09-10T16:18:04.809Z,97691.88
2023-09-10T16:20:31.610Z,97698.69
2023-09-10T16:22:58.325Z,97696.09
2023-09-10T16:25:24.999Z,97701.31
2023-09-10T16:27:51.667Z,97699.94
2023-09-10T16:30:18.388Z,97699.59
2023-09-10T16:32:46.888Z,97695.97
2023-09-10T16:35:13.833Z,97699.50
2023-09-10T16:37:40.927Z,97691.81
2023-09-10T16:40:08.981Z,97697.31
2023-09-10T16:42:35.690Z,97694.63
2023-09-10T16:45:02.379Z,97694.16
2023-09-10T16:47:29.316Z,97689.91
2023-09-10T16:49:56.148Z,97697.25
2023-09-10T16:52:22.777Z,97689.41
2023-09-10T16:54:49.366Z,97699.03
2023-09-10T16:57:16.104Z,97701.91
2023-09-10T16:59:48.219Z,97702.91
2023-09-10T17:02:15.758Z,97700.78
2023-09-10T17:04:42.601Z,97697.19
2023-09-10T17:07:09.897Z,97702.31
2023-09-10T17:09:36.909Z,97697.41
2023-09-10T17:12:06.765Z,97702.75
2023-09-10T17:14:33.846Z,97704.38
2023-09-10T17:17:03.699Z,97706.94
2023-09-10T17:19:31.280Z,97709.81
2023-09-10T17:21:57.925Z,97713.59
2023-09-10T17:24:26.385Z,97719.75
2023-09-10T17:26:53.568Z,97712.78
2023-09-10T17:29:20.232Z,97714.97
2023-09-10T17:31:47.172Z,97712.47
2023-09-10T17:34:13.902Z,97712.97
2023-09-10T17:36:40.514Z,97714.97
2023-09-10T17:39:07.216Z,97709.13
2023-09-10T17:41:33.858Z,97711.72
2023-09-10T17:44:02.414Z,97720.94
2023-09-10T17:46:29.705Z,97718.03
2023-09-10T17:48:56.439Z,97716.56
2023-09-10T17:51:23.066Z,97727.16
2023-09-10T17:53:49.828Z,97721.81
2023-09-10T17:56:16.793Z,97721.16
2023-09-10T17:58:43.493Z,97726.75
2023-09-10T18:01:10.197Z,97732.94
2023-09-10T18:03:36.951Z,97727.88
2023-09-10T18:06:03.771Z,97731.50
2023-09-10T18:08:30.433Z,97736.31
2023-09-10T18:10:57.048Z,97737.38
2023-09-10T18:13:23.693Z,97746.84
2023-09-10T18:15:50.396Z,97744.59
2023-09-10T18:18:17.480Z,97749.63
2023-09-10T18:20:44.602Z,97752.13
2023-09-10T18:23:11.354Z,97759.59
2023-09-10T18:25:38.149Z,97765.09
2023-09-10T18:28:05.122Z,97773.97
2023-09-10T18:30:32.710Z,97775.22
2023-09-10T18:32:59.408Z,97772.44
2023-09-10T18:35:26.433Z,97764.22
2023-09-10T18:37:53.204Z,97766.84
2023-09-10T18:40:20.079Z,97774.78
2023-09-10T18:42:48.773Z,97777.72
2023-09-10T18:45:15.870Z,97775.50
2023-09-10T18:47:42.544Z,97776.69
2023-09-10T18:50:09.546Z,97783.44
2023-09-10T18:52:36.178Z,97774.34
2023-09-10T18:55:02.896Z,97784.56
2023-09-10T18:57:29.656Z,97786.53
2023-09-10T18:59:56.381Z,97784.84
2023-09-10T19:02:23.082Z,97776.47
2023-09-10T19:04:49.796Z,97784.50
2023-09-10T19:07:16.700Z,97783.44
2023-09-10T19:09:44.396Z,97779.69
2023-09-10T19:12:10.982Z,97775.59
2023-09-10T19:14:37.753Z,97780.75
2023-09-10T19:17:04.700Z,97779.97
2023-09-10T19:19:32.035Z,97779.94
2023-09-10T19:21:58.997Z,97782.50
2023-09-10T19:24:25.779Z,97773.00
2023-09-10T19:26:52.460Z,97781.81
2023-09-10T19:29:19.038Z,97779.50
2023-09-10T19:31:45.790Z,97779.94
2023-09-10T19:34:13.019Z,97772.41
2023-09-10T19:36:39.792Z,97773.66
2023-09-10T19:39:11.249Z,97781.44
2023-09-10T19:41:39.366Z,97781.19
2023-09-10T19:44:08.421Z,97776.19
2023-09-10T19:46:35.940Z,97778.69
2023-09-10T19:49:02.698Z,97774.94
2023-09-10T19:51:29.336Z,97776.16
2023-09-10T19:53:55.992Z,97774.91
2023-09-10T19:56:25.805Z,97771.72
2023-09-10T19:59:14.196Z,97774.88
2023-09-10T20:01:42.677Z,97763.53
2023-09-10T20:04:10.057Z,97767.56
2023-09-10T20:06:39.916Z,97768.78
2023-09-10T20:09:08.368Z,97760.59
2023-09-10T20:11:36.049Z,97766.69
2023-09-10T20:14:03.401Z,97768.38
2023-09-10T20:16:30.082Z,97772.13
2023-09-10T20:18:56.752Z,97768.09
2023-09-10T20:21:24.134Z,97768.91
2023-09-10T20:23:51.242Z,97770.13
2023-09-10T20:26:17.995Z,97768.06
2023-09-10T20:28:44.638Z,97772.72
2023-09-10T20:31:11.249Z,97768.50
2023-09-10T20:33:38.444Z,97776.78
2023-09-10T20:36:07.730Z,97771.38
2023-09-10T20:38:35.380Z,97769.34
2023-09-10T20:41:10.827Z,97762.06
2023-09-10T20:43:37.929Z,97769.16
2023-09-10T20:46:04.864Z,97762.81
2023-09-10T20:48:32.145Z,97772.06
2023-09-10T20:50:58.960Z,97778.25
2023-09-10T20:53:25.677Z,97770.13
2023-09-10T20:55:52.413Z,97773.78
2023-09-10T20:58:18.989Z,97770.41
2023-09-10T21:00:45.934Z,97770.19
2023-09-10T21:03:22.153Z,97768.28
2023-09-10T21:05:56.615Z,97769.44
2023-09-10T21:08:23.476Z,97766.59
2023-09-10T21:10:50.158Z,97760.97
2023-09-10T21:13:16.786Z,97768.63
2023-09-10T21:15:44.152Z,97770.25
2023-09-10T21:18:10.885Z,97757.09
2023-09-10T21:20:37.510Z,97769.81
2023-09-10T21:23:04.259Z,97765.63
2023-09-10T21:25:30.883Z,97758.03
2023-09-10T21:27:57.536Z,97758.75
2023-09-10T21:30:24.797Z,97760.59
2023-09-10T21:32:51.501Z,97762.09
2023-09-10T21:35:18.120Z,97760.91
2023-09-10T21:37:44.773Z,97760.09
2023-09-10T21:40:11.977Z,97761.78
2023-09-10T21:42:38.844Z,97764.97
2023-09-10T21:45:06.128Z,97760.41
2023-09-10T21:47:32.807Z,97760.53
2023-09-10T21:49:59.467Z,97759.97
2023-09-10T21:52:26.048Z,97758.00
2023-09-10T21:54:52.833Z,97755.88
2023-09-10T21:57:19.520Z,97754.72
2023-09-10T21:59:46.156Z,97751.78
2023-09-10T22:02:12.766Z,97754.44
2023-09-10T22:04:39.460Z,97750.91
2023-09-10T22:07:06.119Z,97751.16
2023-09-10T22:09:33.755Z,97744.50
2023-09-10T22:12:00.525Z,97741.88
2023-09-10T22:14:27.257Z,97742.69
2023-09-10T22:16:53.943Z,97743.47
2023-09-10T22:19:20.688Z,97740.53
2023-09-10T22:21:47.405Z,97748.19
2023-09-10T22:24:14.106Z,97752.97
2023-09-10T22:26:40.923Z,97742.16
2023-09-10T22:29:07.553Z,97750.34
2023-09-10T22:31:34.290Z,97748.25
2023-09-10T22:34:00.990Z,97748.59
2023-09-10T22:36:37.654Z,97750.78
2023-09-10T22:39:05.708Z,97754.06
2023-09-10T22:41:32.521Z,97740.31
2023-09-10T22:43:59.353Z,97739.50
2023-09-10T22:46:27.202Z,97738.09
2023-09-10T22:48:53.843Z,97744.19
2023-09-10T22:51:20.674Z,97738.63
2023-09-10T22:53:51.618Z,97733.94
2023-09-10T22:56:19.062Z,97742.75
2023-09-10T22:58:47.673Z,97746.13
2023-09-10T23:01:18.070Z,97752.59
2023-09-10T23:03:45.074Z,97742.78
2023-09-10T23:06:12.405Z,97731.88
2023-09-10T23:08:39.910Z,97734.44
2023-09-10T23:11:07.472Z,97739.88
2023-09-10T23:13:35.898Z,97744.03
2023-09-10T23:16:05.863Z,97743.53
2023-09-10T23:18:32.498Z,97730.78
2023-09-10T23:20:59.172Z,97734.69
2023-09-10T23:23:25.917Z,97736.75
2023-09-10T23:25:52.717Z,97731.34
2023-09-10T23:28:19.413Z,97739.06
2023-09-10T23:30:46.056Z,97728.31
2023-09-10T23:33:12.777Z,97731.97
2023-09-10T23:35:39.728Z,97723.13
2023-09-10T23:38:08.236Z,97724.84
2023-09-10T23:40:37.454Z,97725.59
2023-09-10T23:43:04.209Z,97718.97
2023-09-10T23:45:30.854Z,97720.31
2023-09-10T23:47:57.593Z,97719.53
2023-09-10T23:50:24.269Z,97716.25
2023-09-10T23:52:50.875Z,97720.03
2023-09-10T23:55:17.658Z,97727.56
2023-09-10T23:57:44.568Z,97717.56
